createdAt,value
2023-04-30T00:00:29.339Z,99.90
2023-04-30T00:03:51.016Z,99.90
2023-04-30T00:07:12.679Z,99.90
2023-04-30T00:10:34.364Z,99.90
2023-04-30T00:13:55.942Z,99.90
2023-04-30T00:17:18.879Z,99.90
2023-04-30T00:20:40.470Z,99.90
2023-04-30T00:24:02.110Z,99.90
2023-04-30T00:27:23.667Z,99.90
2023-04-30T00:30:45.277Z,99.90
2023-04-30T00:34:08.217Z,99.90
2023-04-30T00:37:29.780Z,99.90
2023-04-30T00:40:51.965Z,99.90
2023-04-30T00:44:13.534Z,99.90
2023-04-30T00:47:35.196Z,99.90
2023-04-30T00:50:58.188Z,99.90
2023-04-30T00:54:20.186Z,99.90
2023-04-30T00:57:41.780Z,99.90
2023-04-30T01:01:03.860Z,99.90
2023-04-30T01:04:25.498Z,99.90
2023-04-30T01:07:48.717Z,99.90
2023-04-30T01:11:16.776Z,99.90
2023-04-30T01:14:45.532Z,99.90
2023-04-30T01:18:09.456Z,99.90
2023-04-30T01:21:32.544Z,99.90
2023-04-30T01:25:07.198Z,99.90
2023-04-30T01:28:31.461Z,99.90
2023-04-30T01:31:54.554Z,99.90
2023-04-30T01:35:17.433Z,99.90
2023-04-30T01:38:52.163Z,99.90
2023-04-30T01:42:17.184Z,99.90
2023-04-30T01:45:48.327Z,99.90
2023-04-30T01:49:16.808Z,99.90
2023-04-30T01:52:40.865Z,99.90
2023-04-30T01:56:04.468Z,99.90
2023-04-30T01:59:26.434Z,99.90
2023-04-30T02:02:49.503Z,99.90
2023-04-30T02:06:11.619Z,99.90
2023-04-30T02:09:34.792Z,99.90
2023-04-30T02:12:57.747Z,99.90
2023-04-30T02:16:19.373Z,99.90
2023-04-30T02:19:42.349Z,99.90
2023-04-30T02:23:03.935Z,99.90
2023-04-30T02:26:25.968Z,99.90
2023-04-30T02:29:48.212Z,99.90
2023-04-30T02:33:10.147Z,99.90
2023-04-30T02:36:33.210Z,99.90
2023-04-30T02:39:55.044Z,99.90
2023-04-30T02:43:16.823Z,99.90
2023-04-30T02:46:38.406Z,99.90
2023-04-30T02:49:59.994Z,99.90
2023-04-30T02:53:23.128Z,99.90
2023-04-30T02:56:44.953Z,99.90
2023-04-30T03:00:07.173Z,99.90
2023-04-30T03:03:28.852Z,99.90
2023-04-30T03:06:50.484Z,99.90
2023-04-30T03:10:13.415Z,99.90
2023-04-30T03:13:35.143Z,99.90
2023-04-30T03:16:56.692Z,99.90
2023-04-30T03:20:18.338Z,99.90
2023-04-30T03:23:39.951Z,99.90
2023-04-30T03:27:02.899Z,99.90
2023-04-30T03:30:24.488Z,99.90
2023-04-30T03:33:46.255Z,99.90
2023-04-30T03:37:07.963Z,99.90
2023-04-30T03:40:29.550Z,99.90
2023-04-30T03:43:52.464Z,99.90
2023-04-30T03:47:14.223Z,99.90
2023-04-30T03:50:36.035Z,99.90
2023-04-30T03:53:57.795Z,99.90
2023-04-30T03:57:19.997Z,99.90
2023-04-30T04:00:46.755Z,99.90
2023-04-30T04:04:10.094Z,99.90
2023-04-30T04:07:33.405Z,99.90
2023-04-30T04:10:55.192Z,99.90
2023-04-30T04:14:16.767Z,99.90
2023-04-30T04:17:39.791Z,99.90
2023-04-30T04:21:02.748Z,99.90
2023-04-30T04:24:24.768Z,99.90
2023-04-30T04:27:46.798Z,99.90
2023-04-30T04:31:08.376Z,99.90
2023-04-30T04:34:31.300Z,99.90
2023-04-30T04:37:54.226Z,99.90
2023-04-30T04:41:17.429Z,99.90
2023-04-30T04:44:39.840Z,99.90
2023-04-30T04:48:02.276Z,99.90
2023-04-30T04:51:27.284Z,99.90
2023-04-30T04:54:51.509Z,99.90
2023-04-30T04:58:16.021Z,99.90
2023-04-30T05:01:38.572Z,99.90
2023-04-30T05:05:01.203Z,99.90
2023-04-30T05:08:25.658Z,99.90
2023-04-30T05:11:48.795Z,99.90
2023-04-30T05:15:10.468Z,99.90
2023-04-30T05:18:32.412Z,99.90
2023-04-30T05:21:55.694Z,99.90
2023-04-30T05:25:18.661Z,99.90
2023-04-30T05:28:41.327Z,99.90
2023-04-30T05:32:03.245Z,99.90
2023-04-30T05:35:25.783Z,99.90
2023-04-30T05:38:47.551Z,99.90
2023-04-30T05:42:10.452Z,99.90
2023-04-30T05:45:32.022Z,99.90
2023-04-30T05:48:53.607Z,99.90
2023-04-30T05:52:16.276Z,99.90
2023-04-30T05:55:41.304Z,99.90
2023-04-30T05:59:05.140Z,99.90
2023-04-30T06:02:26.902Z,99.90
2023-04-30T06:05:48.633Z,99.90
2023-04-30T06:09:10.300Z,99.90
2023-04-30T06:12:31.970Z,99.90
2023-04-30T06:15:56.785Z,99.90
2023-04-30T06:19:18.472Z,99.90
2023-04-30T06:22:40.070Z,99.90
2023-04-30T06:26:01.718Z,99.90
2023-04-30T06:29:23.292Z,99.90
2023-04-30T06:32:46.214Z,99.90
2023-04-30T06:36:07.841Z,99.90
2023-04-30T06:39:29.572Z,99.90
2023-04-30T06:42:52.769Z,99.90
2023-04-30T06:46:15.379Z,99.90
2023-04-30T06:49:38.555Z,99.90
2023-04-30T06:53:00.164Z,99.90
2023-04-30T06:56:21.735Z,99.90
2023-04-30T06:59:43.352Z,99.90
2023-04-30T07:03:06.231Z,99.90
2023-04-30T07:06:29.539Z,99.90
2023-04-30T07:09:51.873Z,99.90
2023-04-30T07:13:13.540Z,99.90
2023-04-30T07:16:35.152Z,99.90
2023-04-30T07:19:56.961Z,99.30
2023-04-30T07:23:20.073Z,96.00
2023-04-30T07:26:41.670Z,93.60
2023-04-30T07:30:04.040Z,92.60
2023-04-30T07:33:25.741Z,91.40
2023-04-30T07:36:48.010Z,90.00
2023-04-30T07:40:13.273Z,90.50
2023-04-30T07:43:36.770Z,90.30
2023-04-30T07:47:01.121Z,88.00
2023-04-30T07:50:22.872Z,86.30
2023-04-30T07:53:44.787Z,84.50
2023-04-30T07:57:07.715Z,85.10
2023-04-30T08:00:29.480Z,84.30
2023-04-30T08:03:51.234Z,83.80
2023-04-30T08:07:13.014Z,86.20
2023-04-30T08:10:34.568Z,86.20
2023-04-30T08:13:57.525Z,84.70
2023-04-30T08:17:19.103Z,84.10
2023-04-30T08:20:41.750Z,85.80
2023-04-30T08:24:04.216Z,85.40
2023-04-30T08:27:26.953Z,89.00
2023-04-30T08:30:50.832Z,90.20
2023-04-30T08:34:12.847Z,91.10
2023-04-30T08:37:34.660Z,86.40
2023-04-30T08:40:59.637Z,83.90
2023-04-30T08:44:22.015Z,86.90
2023-04-30T08:47:45.141Z,86.90
2023-04-30T08:51:06.800Z,87.90
2023-04-30T08:54:30.747Z,86.20
2023-04-30T08:57:53.048Z,81.80
2023-04-30T09:01:15.879Z,83.60
2023-04-30T09:04:39.408Z,78.60
2023-04-30T09:08:04.074Z,83.50
2023-04-30T09:11:27.007Z,82.80
2023-04-30T09:14:58.019Z,83.00
2023-04-30T09:18:19.735Z,87.10
2023-04-30T09:21:42.987Z,86.10
2023-04-30T09:25:04.943Z,87.10
2023-04-30T09:28:26.809Z,89.60
2023-04-30T09:31:48.694Z,90.20
2023-04-30T09:35:28.446Z,88.40
2023-04-30T09:38:51.645Z,90.10
2023-04-30T09:42:13.299Z,88.60
2023-04-30T09:45:44.649Z,89.20
2023-04-30T09:49:07.122Z,90.70
2023-04-30T09:52:28.963Z,90.40
2023-04-30T09:55:52.062Z,90.70
2023-04-30T09:59:14.428Z,90.40
2023-04-30T10:02:37.048Z,89.20
2023-04-30T10:06:00.535Z,90.30
2023-04-30T10:09:24.255Z,89.60
2023-04-30T10:12:50.314Z,88.00
2023-04-30T10:16:13.771Z,88.10
2023-04-30T10:19:39.212Z,90.00
2023-04-30T10:23:01.124Z,90.20
2023-04-30T10:26:22.769Z,86.90
2023-04-30T10:29:46.016Z,85.30
2023-04-30T10:33:14.288Z,86.50
2023-04-30T10:36:39.551Z,85.50
2023-04-30T10:40:01.185Z,85.30
2023-04-30T10:43:23.861Z,85.70
2023-04-30T10:46:47.210Z,85.50
2023-04-30T10:50:09.296Z,82.80
2023-04-30T10:53:31.588Z,84.80
2023-04-30T10:56:53.476Z,84.20
2023-04-30T11:00:18.662Z,85.80
2023-04-30T11:03:42.554Z,84.00
2023-04-30T11:07:13.150Z,85.00
2023-04-30T11:10:36.595Z,84.00
2023-04-30T11:13:59.438Z,84.40
2023-04-30T11:17:22.199Z,84.00
2023-04-30T11:20:50.384Z,83.80
2023-04-30T11:24:12.675Z,85.80
2023-04-30T11:27:34.719Z,84.10
2023-04-30T11:30:56.814Z,84.20
2023-04-30T11:34:19.877Z,84.50
2023-04-30T11:37:43.321Z,83.00
2023-04-30T11:41:05.387Z,84.10
2023-04-30T11:44:27.176Z,82.00
2023-04-30T11:47:49.850Z,81.60
2023-04-30T11:51:14.902Z,82.80
2023-04-30T11:54:37.975Z,84.00
2023-04-30T11:57:59.627Z,84.60
2023-04-30T12:01:21.691Z,83.40
2023-04-30T12:04:43.401Z,84.60
2023-04-30T12:08:05.688Z,83.20
2023-04-30T12:11:29.307Z,82.90
2023-04-30T12:14:53.533Z,82.00
2023-04-30T12:18:15.128Z,81.70
2023-04-30T12:21:36.980Z,83.20
2023-04-30T12:24:59.288Z,84.00
2023-04-30T12:28:23.165Z,82.80
2023-04-30T12:31:45.226Z,82.80
2023-04-30T12:35:07.250Z,83.30
2023-04-30T12:38:28.840Z,82.80
2023-04-30T12:41:50.425Z,82.50
2023-04-30T12:45:13.873Z,84.50
2023-04-30T12:48:43.323Z,85.40
2023-04-30T12:52:06.210Z,83.10
2023-04-30T12:55:27.779Z,83.50
2023-04-30T12:58:49.360Z,83.30
2023-04-30T13:02:13.715Z,83.50
2023-04-30T13:05:35.400Z,83.80
2023-04-30T13:08:58.967Z,81.90
2023-04-30T13:12:20.797Z,80.40
2023-04-30T13:15:42.395Z,82.50
2023-04-30T13:19:05.320Z,83.30
2023-04-30T13:22:26.929Z,82.50
2023-04-30T13:25:48.510Z,82.90
2023-04-30T13:29:10.106Z,83.60
2023-04-30T13:32:31.816Z,82.80
2023-04-30T13:35:54.794Z,82.80
2023-04-30T13:39:16.394Z,82.90
2023-04-30T13:42:38.438Z,83.30
2023-04-30T13:46:00.068Z,81.90
2023-04-30T13:49:21.675Z,82.80
2023-04-30T13:52:44.599Z,82.10
2023-04-30T13:56:06.389Z,82.50
2023-04-30T13:59:28.001Z,82.80
2023-04-30T14:02:49.679Z,82.20
2023-04-30T14:06:11.362Z,81.60
2023-04-30T14:09:34.312Z,81.80
2023-04-30T14:12:55.897Z,80.30
2023-04-30T14:16:17.542Z,81.40
2023-04-30T14:19:39.145Z,83.40
2023-04-30T14:23:02.739Z,84.60
2023-04-30T14:26:25.900Z,83.70
2023-04-30T14:29:47.488Z,84.40
2023-04-30T14:33:09.134Z,83.70
2023-04-30T14:36:30.966Z,83.50
2023-04-30T14:39:52.881Z,83.90
2023-04-30T14:43:16.309Z,83.50
2023-04-30T14:46:38.000Z,81.80
2023-04-30T14:49:59.625Z,81.10
2023-04-30T14:53:21.213Z,80.10
2023-04-30T14:56:48.568Z,82.50
2023-04-30T15:00:13.933Z,82.20
2023-04-30T15:03:35.734Z,81.70
2023-04-30T15:06:57.748Z,82.90
2023-04-30T15:10:20.138Z,80.60
2023-04-30T15:13:44.440Z,81.50
2023-04-30T15:17:07.516Z,82.60
2023-04-30T15:20:29.262Z,82.20
2023-04-30T15:23:51.365Z,83.00
2023-04-30T15:27:13.064Z,84.10
2023-04-30T15:30:34.765Z,82.20
2023-04-30T15:33:57.836Z,82.80
2023-04-30T15:37:19.451Z,83.10
2023-04-30T15:40:41.029Z,83.80
2023-04-30T15:44:02.589Z,82.50
2023-04-30T15:47:24.585Z,82.40
2023-04-30T15:50:47.537Z,82.30
2023-04-30T15:54:09.125Z,83.10
2023-04-30T15:57:30.732Z,82.00
2023-04-30T16:00:52.307Z,83.50
2023-04-30T16:04:14.056Z,84.20
2023-04-30T16:07:37.504Z,82.00
2023-04-30T16:10:59.590Z,83.30
2023-04-30T16:14:21.186Z,82.80
2023-04-30T16:17:42.793Z,83.60
2023-04-30T16:21:04.689Z,83.20
2023-04-30T16:24:27.774Z,83.10
2023-04-30T16:27:49.520Z,84.80
2023-04-30T16:31:11.090Z,84.10
2023-04-30T16:34:32.676Z,85.40
2023-04-30T16:37:54.348Z,84.70
2023-04-30T16:41:17.349Z,85.20
2023-04-30T16:44:38.926Z,86.10
2023-04-30T16:48:00.614Z,86.40
2023-04-30T16:51:22.254Z,86.20
2023-04-30T16:54:44.154Z,85.80
2023-04-30T16:58:07.190Z,85.90
2023-04-30T17:01:30.209Z,84.70
2023-04-30T17:04:52.159Z,85.40
2023-04-30T17:08:13.760Z,85.80
2023-04-30T17:11:35.344Z,86.50
2023-04-30T17:14:58.303Z,88.40
2023-04-30T17:18:19.992Z,87.60
2023-04-30T17:21:41.990Z,87.80
2023-04-30T17:25:03.643Z,89.10
2023-04-30T17:28:25.213Z,87.90
2023-04-30T17:31:48.315Z,87.80
2023-04-30T17:35:09.974Z,88.30
2023-04-30T17:38:31.622Z,89.00
2023-04-30T17:41:53.223Z,88.70
2023-04-30T17:45:14.924Z,89.60
2023-04-30T17:48:38.000Z,90.00
2023-04-30T17:51:59.578Z,90.50
2023-04-30T17:55:21.316Z,91.00
2023-04-30T17:58:42.916Z,91.00
2023-04-30T18:02:04.527Z,91.50
2023-04-30T18:05:27.564Z,91.30
2023-04-30T18:08:49.153Z,90.90
2023-04-30T18:12:10.778Z,91.30
2023-04-30T18:15:32.422Z,91.50
2023-04-30T18:18:54.012Z,91.60
2023-04-30T18:22:17.004Z,91.80
2023-04-30T18:25:38.821Z,91.90
2023-04-30T18:29:00.476Z,92.00
2023-04-30T18:32:22.212Z,92.00
2023-04-30T18:35:43.823Z,91.90
2023-04-30T18:39:06.710Z,92.40
2023-04-30T18:42:28.284Z,92.40
2023-04-30T18:45:49.992Z,92.50
2023-04-30T18:49:11.597Z,92.60
2023-04-30T18:52:33.261Z,94.00
2023-04-30T18:55:57.456Z,94.00
2023-04-30T18:59:19.046Z,95.00
2023-04-30T19:02:40.751Z,95.00
2023-04-30T19:06:02.515Z,95.30
2023-04-30T19:09:24.159Z,96.40
2023-04-30T19:12:47.090Z,96.80
2023-04-30T19:16:08.747Z,97.10
2023-04-30T19:19:30.381Z,96.30
2023-04-30T19:22:52.414Z,96.00
2023-04-30T19:26:15.584Z,96.40
2023-04-30T19:29:38.979Z,97.60
2023-04-30T19:33:01.461Z,97.40
2023-04-30T19:36:23.166Z,97.40
2023-04-30T19:39:44.879Z,98.30
2023-04-30T19:43:06.480Z,99.10
2023-04-30T19:46:29.511Z,98.00
2023-04-30T19:49:51.177Z,98.60
2023-04-30T19:53:13.923Z,99.20
2023-04-30T19:56:35.532Z,99.00
2023-04-30T19:59:57.364Z,99.20
2023-04-30T20:03:21.561Z,99.50
2023-04-30T20:06:43.398Z,99.50
2023-04-30T20:10:05.544Z,99.90
2023-04-30T20:13:27.548Z,99.90
2023-04-30T20:16:49.280Z,99.90
2023-04-30T20:20:12.667Z,99.90
2023-04-30T20:23:34.384Z,99.90
2023-04-30T20:26:56.039Z,99.90
2023-04-30T20:30:17.724Z,99.90
2023-04-30T20:33:39.307Z,99.90
2023-04-30T20:37:02.624Z,99.90
2023-04-30T20:40:25.229Z,99.90
2023-04-30T20:43:46.811Z,99.90
2023-04-30T20:47:08.424Z,99.90
2023-04-30T20:50:30.108Z,99.90
2023-04-30T20:53:53.069Z,99.90
2023-04-30T20:57:14.667Z,99.90
2023-04-30T21:00:36.262Z,99.90
2023-04-30T21:03:57.885Z,99.90
2023-04-30T21:07:19.452Z,99.90
2023-04-30T21:10:42.382Z,99.90
2023-04-30T21:14:03.951Z,99.90
2023-04-30T21:17:25.593Z,99.90
2023-04-30T21:20:47.168Z,99.90
2023-04-30T21:24:08.759Z,99.90
2023-04-30T21:27:32.167Z,99.90
2023-04-30T21:30:53.860Z,99.90
2023-04-30T21:34:15.554Z,99.90
2023-04-30T21:37:37.137Z,99.90
2023-04-30T21:40:58.738Z,99.90
2023-04-30T21:44:21.657Z,99.90
2023-04-30T21:47:43.314Z,99.90
2023-04-30T21:51:10.588Z,99.90
2023-04-30T21:54:32.268Z,99.90
2023-04-30T21:57:53.897Z,99.90
2023-04-30T22:01:16.869Z,99.90
2023-04-30T22:04:38.589Z,99.90
2023-04-30T22:08:00.390Z,99.90
2023-04-30T22:11:22.120Z,99.90
2023-04-30T22:14:43.792Z,99.90
2023-04-30T22:18:06.782Z,99.90
2023-04-30T22:21:28.416Z,99.90
2023-04-30T22:24:50.120Z,99.90
2023-04-30T22:28:11.720Z,99.90
2023-04-30T22:31:33.405Z,99.90
2023-04-30T22:34:56.388Z,99.90
2023-04-30T22:38:17.967Z,99.90
2023-04-30T22:41:39.521Z,99.90
2023-04-30T22:45:01.262Z,99.90
2023-04-30T22:48:23.026Z,99.90
2023-04-30T22:51:45.957Z,99.90
2023-04-30T22:55:08.102Z,99.90
2023-04-30T22:58:29.657Z,99.90
2023-04-30T23:01:51.268Z,99.90
2023-04-30T23:05:12.880Z,99.90
2023-04-30T23:08:35.803Z,99.90
2023-04-30T23:11:57.386Z,99.90
2023-04-30T23:15:19.025Z,99.90
2023-04-30T23:18:40.562Z,99.90
2023-04-30T23:22:02.150Z,99.90
2023-04-30T23:25:25.090Z,99.90
2023-04-30T23:28:46.668Z,99.90
2023-04-30T23:32:08.348Z,99.90
2023-04-30T23:35:29.955Z,99.90
2023-04-30T23:38:51.545Z,99.90
2023-04-30T23:42:14.498Z,99.90
2023-04-30T23:45:36.108Z,99.90
2023-04-30T23:48:57.685Z,99.90
2023-04-30T23:52:19.276Z,99.90
2023-04-30T23:55:41.088Z,99.90
2023-04-30T23:59:04.029Z,99.90
